Terminal Aerodrome Forecast
Issued by NWS Sioux Falls, SD

Home | Current Version | Previous Version | Text Only | Print | Product List | Glossary Off
Versions: 1 2 3 4 5 6 7 8 9 10 11 12 13 14 15 16 17 18 19 20 21 22 23 24 25 26

000
FTUS43 KFSD 051730
TAFSUX
TAF
KSUX 051730Z 0518/0618 15015G22KT P6SM SKC
     FM052000 17018G25KT P6SM SCT050
     FM060200 16014G20KT P6SM SCT060 BKN120
     FM061000 17014KT 4SM TSRA OVC030CB
     FM061500 32015KT 6SM SHRA OVC025=

USA.gov is the U.S. government's official web portal to all federal, state and local government web resources and services.